sensor_id;sensor_type;location;lat;lon;timestamp;P1;durP1;ratioP1;P2;durP2;ratioP2
49582;SDS011;36329;48.816;44.624;2022-12-07T00:01:04;14.3;;;6.2;;
49582;SDS011;36329;48.816;44.624;2022-12-07T00:04:09;12.4;;;6.5;;
49582;SDS011;36329;48.816;44.624;2022-12-07T00:07:12;12.1;;;6.1;;
49582;SDS011;36329;48.816;44.624;2022-12-07T00:10:14;11.8;;;5.7;;
49582;SDS011;36329;48.816;44.624;2022-12-07T00:13:16;10.5;;;6;;
49582;SDS011;36329;48.816;44.624;2022-12-07T00:16:18;10.2;;;5.5;;
49582;SDS011;36329;48.816;44.624;2022-12-07T00:19:21;11.6;;;6.5;;
49582;SDS011;36329;48.816;44.624;2022-12-07T00:22:23;10.4;;;5.7;;
49582;SDS011;36329;48.816;44.624;2022-12-07T00:25:24;17.6;;;6.1;;
49582;SDS011;36329;48.816;44.624;2022-12-07T00:28:26;11.9;;;6.3;;
49582;SDS011;36329;48.816;44.624;2022-12-07T00:31:29;10.9;;;5.9;;
49582;SDS011;36329;48.816;44.624;2022-12-07T00:34:32;12.6;;;5.6;;
49582;SDS011;36329;48.816;44.624;2022-12-07T00:37:34;12.6;;;6.3;;
49582;SDS011;36329;48.816;44.624;2022-12-07T00:40:35;11.4;;;5.7;;
49582;SDS011;36329;48.816;44.624;2022-12-07T00:43:37;12.7;;;5.9;;
49582;SDS011;36329;48.816;44.624;2022-12-07T00:46:39;11.4;;;5.4;;
49582;SDS011;36329;48.816;44.624;2022-12-07T00:49:41;14.7;;;6;;
49582;SDS011;36329;48.816;44.624;2022-12-07T00:52:42;12.3;;;6.1;;
49582;SDS011;36329;48.816;44.624;2022-12-07T00:55:44;11.6;;;5.5;;
49582;SDS011;36329;48.816;44.624;2022-12-07T00:58:49;11;;;5.1;;
49582;SDS011;36329;48.816;44.624;2022-12-07T01:01:51;9.5;;;4.7;;
49582;SDS011;36329;48.816;44.624;2022-12-07T01:04:53;12;;;5.3;;
49582;SDS011;36329;48.816;44.624;2022-12-07T01:07:54;9.9;;;5.5;;
49582;SDS011;36329;48.816;44.624;2022-12-07T01:10:57;9.1;;;5.1;;
49582;SDS011;36329;48.816;44.624;2022-12-07T01:13:59;10.1;;;5.4;;
49582;SDS011;36329;48.816;44.624;2022-12-07T01:17:01;12.8;;;4.6;;
49582;SDS011;36329;48.816;44.624;2022-12-07T01:20:03;9.6;;;5;;
49582;SDS011;36329;48.816;44.624;2022-12-07T01:23:05;9.6;;;5.1;;
49582;SDS011;36329;48.816;44.624;2022-12-07T01:26:07;13.3;;;5.4;;
49582;SDS011;36329;48.816;44.624;2022-12-07T01:29:13;12.5;;;5.6;;
49582;SDS011;36329;48.816;44.624;2022-12-07T01:32:15;8.2;;;4.7;;
49582;SDS011;36329;48.816;44.624;2022-12-07T01:35:16;11.2;;;4.9;;
49582;SDS011;36329;48.816;44.624;2022-12-07T01:38:18;8.7;;;5.3;;
49582;SDS011;36329;48.816;44.624;2022-12-07T01:41:20;10.2;;;5.1;;
49582;SDS011;36329;48.816;44.624;2022-12-07T01:44:27;11;;;5.8;;
49582;SDS011;36329;48.816;44.624;2022-12-07T01:47:31;12.3;;;5.5;;
49582;SDS011;36329;48.816;44.624;2022-12-07T01:50:32;9.5;;;4.7;;
49582;SDS011;36329;48.816;44.624;2022-12-07T01:53:35;10.2;;;5.2;;
49582;SDS011;36329;48.816;44.624;2022-12-07T01:56:39;9.1;;;5.1;;
49582;SDS011;36329;48.816;44.624;2022-12-07T01:59:45;8.9;;;4.6;;
49582;SDS011;36329;48.816;44.624;2022-12-07T02:02:51;9.6;;;4.3;;
49582;SDS011;36329;48.816;44.624;2022-12-07T02:05:57;9.5;;;4.8;;
49582;SDS011;36329;48.816;44.624;2022-12-07T02:09:00;10.1;;;4.8;;
49582;SDS011;36329;48.816;44.624;2022-12-07T02:12:02;8.3;;;4.4;;
49582;SDS011;36329;48.816;44.624;2022-12-07T02:15:04;8.2;;;5.2;;
49582;SDS011;36329;48.816;44.624;2022-12-07T02:18:07;9.4;;;5.1;;
49582;SDS011;36329;48.816;44.624;2022-12-07T02:21:18;9.8;;;4.9;;
49582;SDS011;36329;48.816;44.624;2022-12-07T02:24:32;9.8;;;5.6;;
49582;SDS011;36329;48.816;44.624;2022-12-07T02:27:47;10.3;;;5.1;;
49582;SDS011;36329;48.816;44.624;2022-12-07T02:30:54;9.6;;;5.2;;
49582;SDS011;36329;48.816;44.624;2022-12-07T02:34:03;12;;;5.8;;
49582;SDS011;36329;48.816;44.624;2022-12-07T02:37:12;10.5;;;5.5;;
49582;SDS011;36329;48.816;44.624;2022-12-07T02:40:22;15.1;;;6.2;;
49582;SDS011;36329;48.816;44.624;2022-12-07T02:43:26;15;;;6.4;;
49582;SDS011;36329;48.816;44.624;2022-12-07T02:46:31;13.8;;;6.2;;
49582;SDS011;36329;48.816;44.624;2022-12-07T02:49:37;12.9;;;6.1;;
49582;SDS011;36329;48.816;44.624;2022-12-07T02:52:40;12.7;;;6.1;;
49582;SDS011;36329;48.816;44.624;2022-12-07T02:55:41;16;;;6.7;;
49582;SDS011;36329;48.816;44.624;2022-12-07T02:58:46;16.2;;;6.8;;
49582;SDS011;36329;48.816;44.624;2022-12-07T03:01:55;16.9;;;7.2;;
49582;SDS011;36329;48.816;44.624;2022-12-07T03:05:07;14;;;7.1;;
49582;SDS011;36329;48.816;44.624;2022-12-07T03:08:17;14.9;;;7.2;;
49582;SDS011;36329;48.816;44.624;2022-12-07T03:11:25;16.8;;;7.7;;
49582;SDS011;36329;48.816;44.624;2022-12-07T03:14:36;19.7;;;7.8;;
49582;SDS011;36329;48.816;44.624;2022-12-07T03:17:47;14.7;;;6.1;;
49582;SDS011;36329;48.816;44.624;2022-12-07T03:20:52;15.9;;;6.6;;
49582;SDS011;36329;48.816;44.624;2022-12-07T03:24:00;15.4;;;6.4;;
49582;SDS011;36329;48.816;44.624;2022-12-07T03:27:09;17.6;;;6.7;;
49582;SDS011;36329;48.816;44.624;2022-12-07T03:30:16;12;;;5.8;;
49582;SDS011;36329;48.816;44.624;2022-12-07T03:33:21;15.8;;;6.9;;
49582;SDS011;36329;48.816;44.624;2022-12-07T03:36:26;15.6;;;5.9;;
49582;SDS011;36329;48.816;44.624;2022-12-07T03:39:34;11.6;;;6.3;;
49582;SDS011;36329;48.816;44.624;2022-12-07T03:42:41;13.8;;;6.3;;
49582;SDS011;36329;48.816;44.624;2022-12-07T03:45:44;12.3;;;6.2;;
49582;SDS011;36329;48.816;44.624;2022-12-07T03:48:55;14.4;;;6.4;;
49582;SDS011;36329;48.816;44.624;2022-12-07T03:52:00;14.5;;;7;;
49582;SDS011;36329;48.816;44.624;2022-12-07T03:55:08;17.3;;;6.6;;
49582;SDS011;36329;48.816;44.624;2022-12-07T03:58:17;18.1;;;6.9;;
49582;SDS011;36329;48.816;44.624;2022-12-07T04:01:22;14.5;;;6.3;;
49582;SDS011;36329;48.816;44.624;2022-12-07T04:04:24;15.4;;;6.7;;
49582;SDS011;36329;48.816;44.624;2022-12-07T04:07:26;14.5;;;6.2;;
49582;SDS011;36329;48.816;44.624;2022-12-07T04:10:28;17.6;;;7.3;;
49582;SDS011;36329;48.816;44.624;2022-12-07T04:13:29;15.2;;;6.5;;
49582;SDS011;36329;48.816;44.624;2022-12-07T04:16:31;16.8;;;7;;
49582;SDS011;36329;48.816;44.624;2022-12-07T04:19:33;16.4;;;7.4;;
49582;SDS011;36329;48.816;44.624;2022-12-07T04:22:35;21.4;;;6.6;;
49582;SDS011;36329;48.816;44.624;2022-12-07T04:25:37;14.4;;;6.7;;
49582;SDS011;36329;48.816;44.624;2022-12-07T04:28:38;14.9;;;7.5;;
49582;SDS011;36329;48.816;44.624;2022-12-07T04:31:40;13;;;7.3;;
49582;SDS011;36329;48.816;44.624;2022-12-07T04:34:43;15.9;;;6.8;;
49582;SDS011;36329;48.816;44.624;2022-12-07T04:37:44;12.5;;;6.7;;
49582;SDS011;36329;48.816;44.624;2022-12-07T04:40:46;14.2;;;6.6;;
49582;SDS011;36329;48.816;44.624;2022-12-07T04:43:47;13.5;;;6.7;;
49582;SDS011;36329;48.816;44.624;2022-12-07T04:46:49;11.4;;;6;;
49582;SDS011;36329;48.816;44.624;2022-12-07T04:49:51;11.6;;;5.5;;
49582;SDS011;36329;48.816;44.624;2022-12-07T04:52:53;10.6;;;5.9;;
49582;SDS011;36329;48.816;44.624;2022-12-07T04:55:55;10.1;;;6;;
49582;SDS011;36329;48.816;44.624;2022-12-07T04:58:57;13.4;;;5.8;;
49582;SDS011;36329;48.816;44.624;2022-12-07T05:01:59;13.2;;;5.5;;
49582;SDS011;36329;48.816;44.624;2022-12-07T05:05:00;12.2;;;5.5;;
49582;SDS011;36329;48.816;44.624;2022-12-07T05:08:02;15.1;;;6.2;;
49582;SDS011;36329;48.816;44.624;2022-12-07T05:11:04;11.7;;;6.1;;
49582;SDS011;36329;48.816;44.624;2022-12-07T05:14:08;15.7;;;6.3;;
49582;SDS011;36329;48.816;44.624;2022-12-07T05:17:11;15.3;;;6.2;;
49582;SDS011;36329;48.816;44.624;2022-12-07T05:20:12;13.6;;;6.2;;
49582;SDS011;36329;48.816;44.624;2022-12-07T05:23:14;14.6;;;6.7;;
49582;SDS011;36329;48.816;44.624;2022-12-07T05:26:16;16.5;;;6.6;;
49582;SDS011;36329;48.816;44.624;2022-12-07T05:29:18;12.8;;;6.5;;
49582;SDS011;36329;48.816;44.624;2022-12-07T05:32:19;15.8;;;6.9;;
49582;SDS011;36329;48.816;44.624;2022-12-07T05:35:21;16.5;;;6.8;;
49582;SDS011;36329;48.816;44.624;2022-12-07T05:38:23;12.8;;;6.3;;
49582;SDS011;36329;48.816;44.624;2022-12-07T05:41:24;12.5;;;6.3;;
49582;SDS011;36329;48.816;44.624;2022-12-07T05:44:26;15.1;;;7.3;;
49582;SDS011;36329;48.816;44.624;2022-12-07T05:47:27;14.5;;;6.6;;
49582;SDS011;36329;48.816;44.624;2022-12-07T05:50:29;14.4;;;7;;
49582;SDS011;36329;48.816;44.624;2022-12-07T05:53:31;14.9;;;6.6;;
49582;SDS011;36329;48.816;44.624;2022-12-07T05:56:32;17.7;;;6.7;;
49582;SDS011;36329;48.816;44.624;2022-12-07T05:59:34;13.6;;;6.7;;
49582;SDS011;36329;48.816;44.624;2022-12-07T06:02:37;15.5;;;6.8;;
49582;SDS011;36329;48.816;44.624;2022-12-07T06:05:39;15.8;;;5.8;;
49582;SDS011;36329;48.816;44.624;2022-12-07T06:08:41;11.9;;;6.5;;
49582;SDS011;36329;48.816;44.624;2022-12-07T06:11:42;15.8;;;6.6;;
49582;SDS011;36329;48.816;44.624;2022-12-07T06:14:44;15;;;7;;
49582;SDS011;36329;48.816;44.624;2022-12-07T06:17:46;13.2;;;6.6;;
49582;SDS011;36329;48.816;44.624;2022-12-07T06:20:48;17.1;;;7.6;;
49582;SDS011;36329;48.816;44.624;2022-12-07T06:23:51;17;;;7.5;;
49582;SDS011;36329;48.816;44.624;2022-12-07T06:26:53;17.7;;;7.4;;
49582;SDS011;36329;48.816;44.624;2022-12-07T06:29:55;17.2;;;7.5;;
49582;SDS011;36329;48.816;44.624;2022-12-07T06:32:57;19.6;;;7.8;;
49582;SDS011;36329;48.816;44.624;2022-12-07T06:35:59;25.4;;;8.6;;
49582;SDS011;36329;48.816;44.624;2022-12-07T06:39:02;19.9;;;8.1;;
49582;SDS011;36329;48.816;44.624;2022-12-07T06:42:04;21.7;;;8.6;;
49582;SDS011;36329;48.816;44.624;2022-12-07T06:45:06;16.5;;;8.7;;
49582;SDS011;36329;48.816;44.624;2022-12-07T06:48:08;19.9;;;9.2;;
49582;SDS011;36329;48.816;44.624;2022-12-07T06:51:09;21.6;;;10.3;;
49582;SDS011;36329;48.816;44.624;2022-12-07T06:54:12;13.3;;;7.5;;
49582;SDS011;36329;48.816;44.624;2022-12-07T06:57:15;21.7;;;8.7;;
49582;SDS011;36329;48.816;44.624;2022-12-07T07:00:17;15.3;;;8;;
49582;SDS011;36329;48.816;44.624;2022-12-07T07:03:20;15.6;;;7.6;;
49582;SDS011;36329;48.816;44.624;2022-12-07T07:06:22;19.3;;;8.6;;
49582;SDS011;36329;48.816;44.624;2022-12-07T07:09:24;16.4;;;7;;
49582;SDS011;36329;48.816;44.624;2022-12-07T07:12:25;12.3;;;6;;
49582;SDS011;36329;48.816;44.624;2022-12-07T07:15:27;11;;;5.6;;
49582;SDS011;36329;48.816;44.624;2022-12-07T07:18:29;9.5;;;5.2;;
49582;SDS011;36329;48.816;44.624;2022-12-07T07:21:30;8.9;;;5;;
49582;SDS011;36329;48.816;44.624;2022-12-07T07:24:32;10.2;;;5.2;;
49582;SDS011;36329;48.816;44.624;2022-12-07T07:27:33;12.9;;;5.4;;
49582;SDS011;36329;48.816;44.624;2022-12-07T07:30:35;14.2;;;5.6;;
49582;SDS011;36329;48.816;44.624;2022-12-07T07:33:36;10.2;;;5.2;;
49582;SDS011;36329;48.816;44.624;2022-12-07T07:36:38;10.7;;;4.9;;
49582;SDS011;36329;48.816;44.624;2022-12-07T07:39:39;15.6;;;5.3;;
49582;SDS011;36329;48.816;44.624;2022-12-07T07:42:41;11.1;;;4.9;;
49582;SDS011;36329;48.816;44.624;2022-12-07T07:45:44;12.7;;;5.3;;
49582;SDS011;36329;48.816;44.624;2022-12-07T07:48:45;15.7;;;4.6;;
49582;SDS011;36329;48.816;44.624;2022-12-07T07:51:47;12;;;4.8;;
49582;SDS011;36329;48.816;44.624;2022-12-07T07:54:48;12.8;;;5.7;;
49582;SDS011;36329;48.816;44.624;2022-12-07T07:57:50;11.2;;;5.9;;
49582;SDS011;36329;48.816;44.624;2022-12-07T08:00:52;13.6;;;5.3;;
49582;SDS011;36329;48.816;44.624;2022-12-07T08:03:54;10.8;;;5.3;;
49582;SDS011;36329;48.816;44.624;2022-12-07T08:06:56;11.8;;;5;;
49582;SDS011;36329;48.816;44.624;2022-12-07T08:09:58;11.2;;;4.8;;
49582;SDS011;36329;48.816;44.624;2022-12-07T08:12:59;9.4;;;4.9;;
49582;SDS011;36329;48.816;44.624;2022-12-07T08:16:03;8.6;;;5.3;;
49582;SDS011;36329;48.816;44.624;2022-12-07T08:19:06;11.4;;;5;;
49582;SDS011;36329;48.816;44.624;2022-12-07T08:22:07;12.5;;;5.1;;
49582;SDS011;36329;48.816;44.624;2022-12-07T08:25:09;9.3;;;5.3;;
49582;SDS011;36329;48.816;44.624;2022-12-07T08:28:11;10.3;;;5.4;;
49582;SDS011;36329;48.816;44.624;2022-12-07T08:31:13;7.9;;;4.6;;
49582;SDS011;36329;48.816;44.624;2022-12-07T08:34:16;12.4;;;5.1;;
49582;SDS011;36329;48.816;44.624;2022-12-07T08:37:18;9.8;;;4.9;;
49582;SDS011;36329;48.816;44.624;2022-12-07T08:40:20;14.6;;;5.4;;
49582;SDS011;36329;48.816;44.624;2022-12-07T08:43:22;9.5;;;4.7;;
49582;SDS011;36329;48.816;44.624;2022-12-07T08:46:24;13.1;;;5.5;;
49582;SDS011;36329;48.816;44.624;2022-12-07T08:49:31;9.7;;;5.3;;
49582;SDS011;36329;48.816;44.624;2022-12-07T08:52:35;11.5;;;5.6;;
49582;SDS011;36329;48.816;44.624;2022-12-07T08:55:38;14.6;;;4.8;;
49582;SDS011;36329;48.816;44.624;2022-12-07T08:58:39;9.2;;;4.9;;
49582;SDS011;36329;48.816;44.624;2022-12-07T09:01:43;13.9;;;5.1;;
49582;SDS011;36329;48.816;44.624;2022-12-07T09:04:47;10.1;;;5.2;;
49582;SDS011;36329;48.816;44.624;2022-12-07T09:07:50;10.3;;;5;;
49582;SDS011;36329;48.816;44.624;2022-12-07T09:10:57;10.4;;;5.4;;
49582;SDS011;36329;48.816;44.624;2022-12-07T09:13:59;9.8;;;4.9;;
49582;SDS011;36329;48.816;44.624;2022-12-07T09:17:08;12.9;;;5.3;;
49582;SDS011;36329;48.816;44.624;2022-12-07T09:20:13;12;;;5.1;;
49582;SDS011;36329;48.816;44.624;2022-12-07T09:23:14;11.2;;;5.2;;
49582;SDS011;36329;48.816;44.624;2022-12-07T09:26:16;9.9;;;4.7;;
49582;SDS011;36329;48.816;44.624;2022-12-07T09:29:18;11.4;;;5.1;;
49582;SDS011;36329;48.816;44.624;2022-12-07T09:32:19;9.9;;;5.1;;
49582;SDS011;36329;48.816;44.624;2022-12-07T09:35:21;10.3;;;4.9;;
49582;SDS011;36329;48.816;44.624;2022-12-07T09:38:24;12.3;;;5.8;;
49582;SDS011;36329;48.816;44.624;2022-12-07T09:41:26;13.8;;;6.1;;
49582;SDS011;36329;48.816;44.624;2022-12-07T09:44:30;11.3;;;5.9;;
49582;SDS011;36329;48.816;44.624;2022-12-07T09:47:32;11.9;;;5.5;;
49582;SDS011;36329;48.816;44.624;2022-12-07T09:50:34;15.3;;;7.3;;
49582;SDS011;36329;48.816;44.624;2022-12-07T09:53:37;10.5;;;5.7;;
49582;SDS011;36329;48.816;44.624;2022-12-07T09:56:39;11.2;;;4.5;;
49582;SDS011;36329;48.816;44.624;2022-12-07T09:59:41;9.3;;;4.6;;
49582;SDS011;36329;48.816;44.624;2022-12-07T10:02:43;10.2;;;5.4;;
49582;SDS011;36329;48.816;44.624;2022-12-07T10:05:48;11.4;;;6.1;;
49582;SDS011;36329;48.816;44.624;2022-12-07T10:08:52;11.5;;;5.9;;
49582;SDS011;36329;48.816;44.624;2022-12-07T10:12:02;10;;;5.3;;
49582;SDS011;36329;48.816;44.624;2022-12-07T10:15:07;10.5;;;4.8;;
49582;SDS011;36329;48.816;44.624;2022-12-07T10:18:17;13;;;5.7;;
49582;SDS011;36329;48.816;44.624;2022-12-07T10:21:21;10.1;;;5.5;;
49582;SDS011;36329;48.816;44.624;2022-12-07T10:24:24;14.7;;;6.4;;
49582;SDS011;36329;48.816;44.624;2022-12-07T10:27:26;12.8;;;6.3;;
49582;SDS011;36329;48.816;44.624;2022-12-07T10:30:33;13.1;;;5.9;;
49582;SDS011;36329;48.816;44.624;2022-12-07T10:33:49;15.2;;;7;;
49582;SDS011;36329;48.816;44.624;2022-12-07T10:36:53;11.8;;;5.1;;
49582;SDS011;36329;48.816;44.624;2022-12-07T10:39:55;8.7;;;4.9;;
49582;SDS011;36329;48.816;44.624;2022-12-07T10:43:13;13;;;5.3;;
49582;SDS011;36329;48.816;44.624;2022-12-07T10:46:28;12.9;;;6.6;;
49582;SDS011;36329;48.816;44.624;2022-12-07T10:49:46;18;;;6.5;;
49582;SDS011;36329;48.816;44.624;2022-12-07T10:53:01;14.1;;;5.6;;
49582;SDS011;36329;48.816;44.624;2022-12-07T10:56:16;11.4;;;5.9;;
49582;SDS011;36329;48.816;44.624;2022-12-07T11:03:08;12;;;5.5;;
49582;SDS011;36329;48.816;44.624;2022-12-07T11:06:27;13.2;;;5.5;;
49582;SDS011;36329;48.816;44.624;2022-12-07T11:13:02;12.2;;;5.7;;
49582;SDS011;36329;48.816;44.624;2022-12-07T11:16:21;11.8;;;5.9;;
49582;SDS011;36329;48.816;44.624;2022-12-07T11:19:31;23.1;;;7.3;;
49582;SDS011;36329;48.816;44.624;2022-12-07T11:22:43;14.1;;;6.9;;
49582;SDS011;36329;48.816;44.624;2022-12-07T11:25:54;14;;;6.9;;
49582;SDS011;36329;48.816;44.624;2022-12-07T11:29:10;15.4;;;6.8;;
49582;SDS011;36329;48.816;44.624;2022-12-07T11:32:22;10.6;;;6.4;;
49582;SDS011;36329;48.816;44.624;2022-12-07T11:35:40;12.9;;;5.8;;
49582;SDS011;36329;48.816;44.624;2022-12-07T11:38:50;15.3;;;6.1;;
49582;SDS011;36329;48.816;44.624;2022-12-07T11:41:59;17.4;;;6.7;;
49582;SDS011;36329;48.816;44.624;2022-12-07T11:45:12;13.1;;;6;;
49582;SDS011;36329;48.816;44.624;2022-12-07T11:48:17;13.3;;;5.8;;
49582;SDS011;36329;48.816;44.624;2022-12-07T11:51:24;11.8;;;5.4;;
49582;SDS011;36329;48.816;44.624;2022-12-07T11:54:28;11.3;;;5.3;;
49582;SDS011;36329;48.816;44.624;2022-12-07T11:57:35;13;;;6.7;;
49582;SDS011;36329;48.816;44.624;2022-12-07T12:00:42;17.2;;;7.3;;
49582;SDS011;36329;48.816;44.624;2022-12-07T12:03:45;10.9;;;5.8;;
49582;SDS011;36329;48.816;44.624;2022-12-07T12:06:48;12.5;;;4.8;;
49582;SDS011;36329;48.816;44.624;2022-12-07T12:09:50;9.4;;;5;;
49582;SDS011;36329;48.816;44.624;2022-12-07T12:13:02;10;;;4.7;;
49582;SDS011;36329;48.816;44.624;2022-12-07T12:16:20;12.3;;;4.5;;
49582;SDS011;36329;48.816;44.624;2022-12-07T12:19:37;8.9;;;4.3;;
49582;SDS011;36329;48.816;44.624;2022-12-07T12:22:44;12;;;4.1;;
49582;SDS011;36329;48.816;44.624;2022-12-07T12:25:52;9;;;3.8;;
49582;SDS011;36329;48.816;44.624;2022-12-07T12:28:56;9.2;;;4.6;;
49582;SDS011;36329;48.816;44.624;2022-12-07T12:32:11;13.3;;;4.7;;
49582;SDS011;36329;48.816;44.624;2022-12-07T12:35:27;7.9;;;3.9;;
49582;SDS011;36329;48.816;44.624;2022-12-07T12:38:31;11.8;;;4.5;;
49582;SDS011;36329;48.816;44.624;2022-12-07T12:48:27;11.6;;;4.8;;
49582;SDS011;36329;48.816;44.624;2022-12-07T12:51:35;13.2;;;4.7;;
49582;SDS011;36329;48.816;44.624;2022-12-07T12:54:38;11.6;;;4.1;;
49582;SDS011;36329;48.816;44.624;2022-12-07T13:04:49;7.1;;;3.5;;
49582;SDS011;36329;48.816;44.624;2022-12-07T13:07:54;9.4;;;4;;
49582;SDS011;36329;48.816;44.624;2022-12-07T13:17:55;7.5;;;3.5;;
49582;SDS011;36329;48.816;44.624;2022-12-07T13:20:59;9.6;;;4.1;;
49582;SDS011;36329;48.816;44.624;2022-12-07T13:24:06;7.4;;;4.1;;
49582;SDS011;36329;48.816;44.624;2022-12-07T13:27:12;8.5;;;3.8;;
49582;SDS011;36329;48.816;44.624;2022-12-07T13:30:15;9.6;;;4.4;;
49582;SDS011;36329;48.816;44.624;2022-12-07T13:33:18;10.9;;;4.7;;
49582;SDS011;36329;48.816;44.624;2022-12-07T13:36:21;11.6;;;4.6;;
49582;SDS011;36329;48.816;44.624;2022-12-07T13:39:25;8.3;;;4.2;;
49582;SDS011;36329;48.816;44.624;2022-12-07T13:42:28;12.8;;;5.1;;
49582;SDS011;36329;48.816;44.624;2022-12-07T13:45:31;12.2;;;4.8;;
49582;SDS011;36329;48.816;44.624;2022-12-07T13:48:35;9;;;4.4;;
49582;SDS011;36329;48.816;44.624;2022-12-07T13:51:43;13.6;;;5.8;;
49582;SDS011;36329;48.816;44.624;2022-12-07T13:54:45;11.5;;;5.7;;
49582;SDS011;36329;48.816;44.624;2022-12-07T13:57:48;12.8;;;5.6;;
49582;SDS011;36329;48.816;44.624;2022-12-07T14:00:54;14.1;;;5;;
49582;SDS011;36329;48.816;44.624;2022-12-07T14:03:55;11.6;;;4.7;;
49582;SDS011;36329;48.816;44.624;2022-12-07T14:06:57;11.4;;;4.5;;
49582;SDS011;36329;48.816;44.624;2022-12-07T14:10:00;18.3;;;5.5;;
49582;SDS011;36329;48.816;44.624;2022-12-07T14:16:29;12.5;;;5.5;;
49582;SDS011;36329;48.816;44.624;2022-12-07T14:19:42;15.4;;;6.2;;
49582;SDS011;36329;48.816;44.624;2022-12-07T14:22:53;26;;;7.9;;
49582;SDS011;36329;48.816;44.624;2022-12-07T14:26:04;18.6;;;6.6;;
49582;SDS011;36329;48.816;44.624;2022-12-07T14:32:32;22.2;;;7.8;;
49582;SDS011;36329;48.816;44.624;2022-12-07T14:35:36;28.4;;;7.7;;
49582;SDS011;36329;48.816;44.624;2022-12-07T14:38:38;28;;;8.9;;
49582;SDS011;36329;48.816;44.624;2022-12-07T14:41:41;22.7;;;8.5;;
49582;SDS011;36329;48.816;44.624;2022-12-07T14:44:44;20.3;;;7.1;;
49582;SDS011;36329;48.816;44.624;2022-12-07T14:47:46;17.5;;;6.7;;
49582;SDS011;36329;48.816;44.624;2022-12-07T14:50:48;15.5;;;5.2;;
49582;SDS011;36329;48.816;44.624;2022-12-07T14:53:52;16.9;;;7.2;;
49582;SDS011;36329;48.816;44.624;2022-12-07T14:56:54;15.9;;;5.9;;
49582;SDS011;36329;48.816;44.624;2022-12-07T14:59:56;15.9;;;5.7;;
49582;SDS011;36329;48.816;44.624;2022-12-07T15:02:57;18.6;;;5.6;;
49582;SDS011;36329;48.816;44.624;2022-12-07T15:05:59;9.9;;;4.1;;
49582;SDS011;36329;48.816;44.624;2022-12-07T15:09:03;10.9;;;3.3;;
49582;SDS011;36329;48.816;44.624;2022-12-07T15:12:06;14.8;;;4.2;;
49582;SDS011;36329;48.816;44.624;2022-12-07T15:15:08;12.1;;;4.2;;
49582;SDS011;36329;48.816;44.624;2022-12-07T15:18:10;7;;;3.2;;
49582;SDS011;36329;48.816;44.624;2022-12-07T15:21:12;7.8;;;3.5;;
49582;SDS011;36329;48.816;44.624;2022-12-07T15:24:16;9.4;;;3.7;;
49582;SDS011;36329;48.816;44.624;2022-12-07T15:27:17;3.1;;;2.1;;
49582;SDS011;36329;48.816;44.624;2022-12-07T15:30:19;4.4;;;2.6;;
49582;SDS011;36329;48.816;44.624;2022-12-07T15:33:21;6;;;2.7;;
49582;SDS011;36329;48.816;44.624;2022-12-07T15:36:25;6.1;;;2.7;;
49582;SDS011;36329;48.816;44.624;2022-12-07T15:39:27;8.2;;;2.6;;
49582;SDS011;36329;48.816;44.624;2022-12-07T15:42:29;5.9;;;2.5;;
49582;SDS011;36329;48.816;44.624;2022-12-07T15:45:30;6;;;2.6;;
49582;SDS011;36329;48.816;44.624;2022-12-07T15:48:32;15.5;;;3.1;;
49582;SDS011;36329;48.816;44.624;2022-12-07T15:51:34;9.5;;;3.2;;
49582;SDS011;36329;48.816;44.624;2022-12-07T15:54:35;6.3;;;2.9;;
49582;SDS011;36329;48.816;44.624;2022-12-07T15:57:37;7.1;;;3.4;;
49582;SDS011;36329;48.816;44.624;2022-12-07T16:00:40;7;;;3.2;;
49582;SDS011;36329;48.816;44.624;2022-12-07T16:03:41;7.4;;;2.7;;
49582;SDS011;36329;48.816;44.624;2022-12-07T16:06:43;6.2;;;2.9;;
49582;SDS011;36329;48.816;44.624;2022-12-07T16:09:45;6.5;;;2.5;;
49582;SDS011;36329;48.816;44.624;2022-12-07T16:12:47;6.1;;;2.6;;
49582;SDS011;36329;48.816;44.624;2022-12-07T16:15:49;7.5;;;2.3;;
49582;SDS011;36329;48.816;44.624;2022-12-07T16:18:50;6;;;2.8;;
49582;SDS011;36329;48.816;44.624;2022-12-07T16:21:54;8;;;2.5;;
49582;SDS011;36329;48.816;44.624;2022-12-07T16:24:55;4.7;;;2.3;;
49582;SDS011;36329;48.816;44.624;2022-12-07T16:27:57;6.1;;;2.5;;
49582;SDS011;36329;48.816;44.624;2022-12-07T16:31:01;6;;;2.7;;
49582;SDS011;36329;48.816;44.624;2022-12-07T16:34:03;6.2;;;2.6;;
49582;SDS011;36329;48.816;44.624;2022-12-07T16:37:05;7;;;2.4;;
49582;SDS011;36329;48.816;44.624;2022-12-07T16:40:07;4.3;;;2.6;;
49582;SDS011;36329;48.816;44.624;2022-12-07T16:43:09;5.5;;;2.6;;
49582;SDS011;36329;48.816;44.624;2022-12-07T16:46:14;7.8;;;3;;
49582;SDS011;36329;48.816;44.624;2022-12-07T16:49:15;5.8;;;3;;
49582;SDS011;36329;48.816;44.624;2022-12-07T16:52:17;9.1;;;2.6;;
49582;SDS011;36329;48.816;44.624;2022-12-07T16:55:19;6.3;;;2.8;;
49582;SDS011;36329;48.816;44.624;2022-12-07T16:58:21;4.2;;;2.8;;
49582;SDS011;36329;48.816;44.624;2022-12-07T17:01:22;5.8;;;3;;
49582;SDS011;36329;48.816;44.624;2022-12-07T17:04:24;7.7;;;3.3;;
49582;SDS011;36329;48.816;44.624;2022-12-07T17:07:26;8;;;2.8;;
49582;SDS011;36329;48.816;44.624;2022-12-07T17:10:28;6.4;;;3.2;;
49582;SDS011;36329;48.816;44.624;2022-12-07T17:13:29;6.9;;;3.1;;
49582;SDS011;36329;48.816;44.624;2022-12-07T17:16:31;5.3;;;3.1;;
49582;SDS011;36329;48.816;44.624;2022-12-07T17:19:34;6.6;;;3;;
49582;SDS011;36329;48.816;44.624;2022-12-07T17:22:35;6.8;;;3.3;;
49582;SDS011;36329;48.816;44.624;2022-12-07T17:25:37;6.6;;;3.1;;
49582;SDS011;36329;48.816;44.624;2022-12-07T17:28:38;5.9;;;3;;
49582;SDS011;36329;48.816;44.624;2022-12-07T17:31:40;9.3;;;3.1;;
49582;SDS011;36329;48.816;44.624;2022-12-07T17:34:42;6;;;2.9;;
49582;SDS011;36329;48.816;44.624;2022-12-07T17:37:44;9.5;;;3.1;;
49582;SDS011;36329;48.816;44.624;2022-12-07T17:40:46;7.9;;;3.1;;
49582;SDS011;36329;48.816;44.624;2022-12-07T17:43:47;5.9;;;3;;
49582;SDS011;36329;48.816;44.624;2022-12-07T17:46:49;6.3;;;3;;
49582;SDS011;36329;48.816;44.624;2022-12-07T17:49:52;6.1;;;3.4;;
49582;SDS011;36329;48.816;44.624;2022-12-07T17:52:54;6;;;2.7;;
49582;SDS011;36329;48.816;44.624;2022-12-07T17:55:55;5.6;;;3.5;;
49582;SDS011;36329;48.816;44.624;2022-12-07T17:58:57;5.7;;;3.2;;
49582;SDS011;36329;48.816;44.624;2022-12-07T18:01:58;5.4;;;3.2;;
49582;SDS011;36329;48.816;44.624;2022-12-07T18:05:00;5.4;;;3.1;;
49582;SDS011;36329;48.816;44.624;2022-12-07T18:08:01;6.2;;;3.3;;
49582;SDS011;36329;48.816;44.624;2022-12-07T18:11:03;5.2;;;3;;
49582;SDS011;36329;48.816;44.624;2022-12-07T18:14:05;6.2;;;2.9;;
49582;SDS011;36329;48.816;44.624;2022-12-07T18:17:07;6.2;;;3.1;;
49582;SDS011;36329;48.816;44.624;2022-12-07T18:20:09;7.7;;;3.4;;
49582;SDS011;36329;48.816;44.624;2022-12-07T18:23:11;7.3;;;3.2;;
49582;SDS011;36329;48.816;44.624;2022-12-07T18:26:13;6.6;;;3.4;;
49582;SDS011;36329;48.816;44.624;2022-12-07T18:29:16;11.5;;;3.4;;
49582;SDS011;36329;48.816;44.624;2022-12-07T18:32:18;7.1;;;3.4;;
49582;SDS011;36329;48.816;44.624;2022-12-07T18:35:20;7.4;;;3.2;;
49582;SDS011;36329;48.816;44.624;2022-12-07T18:38:22;8.3;;;3.5;;
49582;SDS011;36329;48.816;44.624;2022-12-07T18:41:24;7.2;;;2.6;;
49582;SDS011;36329;48.816;44.624;2022-12-07T18:44:25;5.2;;;3.4;;
49582;SDS011;36329;48.816;44.624;2022-12-07T18:47:27;6.9;;;3.4;;
49582;SDS011;36329;48.816;44.624;2022-12-07T18:50:28;4.1;;;2.7;;
49582;SDS011;36329;48.816;44.624;2022-12-07T18:53:31;7;;;3.2;;
49582;SDS011;36329;48.816;44.624;2022-12-07T18:56:33;5.8;;;3.2;;
49582;SDS011;36329;48.816;44.624;2022-12-07T18:59:35;7.5;;;3.7;;
49582;SDS011;36329;48.816;44.624;2022-12-07T19:02:36;8.1;;;3.6;;
49582;SDS011;36329;48.816;44.624;2022-12-07T19:05:38;6.9;;;3.7;;
49582;SDS011;36329;48.816;44.624;2022-12-07T19:08:39;6;;;3.8;;
49582;SDS011;36329;48.816;44.624;2022-12-07T19:11:41;7.9;;;3.5;;
49582;SDS011;36329;48.816;44.624;2022-12-07T19:14:43;5.8;;;3.1;;